Time;durP1;ratioP1;P1;durP2;ratioP2;P2;SDS_P1;SDS_P2;PMS_P1;PMS_P2;Temp;Humidity;BMP_temperature;BMP_pressure;BME280_temperature;BME280_humidity;BME280_pressure;Samples;Min_cycle;Max_cycle;Signal;HPM_P1;HPM_P2
2021/11/27 00:00:07;;;;;;;1999.90;999.90;;;5.60;99.90;;;;;;5012784;28;20408;-68
2021/11/27 00:02:32;;;;;;;1999.90;999.90;;;5.60;99.90;;;;;;5012865;28;20455;-68
2021/11/27 00:04:58;;;;;;;1999.90;999.90;;;5.50;99.90;;;;;;5012540;28;20458;-68
2021/11/27 00:07:24;;;;;;;1999.90;999.90;;;5.50;99.90;;;;;;5012728;28;20219;-68
2021/11/27 00:09:49;;;;;;;1999.90;999.90;;;5.50;99.90;;;;;;5012534;28;20172;-68
2021/11/27 00:12:15;;;;;;;1999.90;999.90;;;5.50;99.90;;;;;;5012506;28;20609;-68
2021/11/27 00:14:40;;;;;;;1999.90;999.90;;;5.50;99.90;;;;;;5012519;28;20215;-68
2021/11/27 00:17:06;;;;;;;1999.90;999.90;;;5.50;99.90;;;;;;5012593;28;20248;-68
2021/11/27 00:19:32;;;;;;;1999.90;999.90;;;5.50;99.90;;;;;;5012681;28;20173;-68
2021/11/27 00:21:58;;;;;;;1999.90;999.90;;;5.60;99.90;;;;;;5012370;28;20334;-68
2021/11/27 00:24:23;;;;;;;1999.90;999.90;;;5.60;99.90;;;;;;5012282;28;20207;-68
2021/11/27 00:26:49;;;;;;;1999.90;999.90;;;5.60;99.90;;;;;;5012457;28;20165;-68
2021/11/27 00:29:15;;;;;;;1999.90;999.90;;;5.60;99.90;;;;;;5012351;28;20531;-68
2021/11/27 00:31:42;;;;;;;1999.90;999.90;;;5.70;99.90;;;;;;5012283;28;20534;-68
2021/11/27 00:34:08;;;;;;;1999.90;999.90;;;5.60;99.90;;;;;;5012116;28;20812;-68
2021/11/27 00:36:34;;;;;;;1999.90;999.90;;;5.60;99.90;;;;;;5012381;28;20400;-68
2021/11/27 00:39:00;;;;;;;1999.90;999.90;;;5.60;99.90;;;;;;5012282;28;20170;-68
2021/11/27 00:41:26;;;;;;;1999.90;999.90;;;5.60;99.90;;;;;;5012515;28;20231;-68
2021/11/27 00:43:52;;;;;;;1999.90;999.90;;;5.60;99.90;;;;;;5012156;28;20431;-68
2021/11/27 00:46:18;;;;;;;1999.90;999.90;;;5.60;99.90;;;;;;5012089;28;20693;-68
2021/11/27 00:48:44;;;;;;;1999.90;999.90;;;5.60;99.90;;;;;;5012183;28;20599;-68
2021/11/27 00:51:14;;;;;;;1999.90;999.90;;;5.60;99.90;;;;;;5012063;28;20538;-68
2021/11/27 00:53:40;;;;;;;1999.90;999.90;;;5.60;99.90;;;;;;5012030;28;20463;-68
2021/11/27 00:56:06;;;;;;;1999.90;999.90;;;5.60;99.90;;;;;;5011901;28;20764;-68
2021/11/27 00:58:32;;;;;;;1999.90;999.90;;;5.50;99.90;;;;;;5012130;28;20393;-68
2021/11/27 01:01:04;;;;;;;1999.90;999.90;;;5.60;99.90;;;;;;5012134;28;20469;-68
2021/11/27 01:03:32;;;;;;;1999.90;999.90;;;5.50;99.90;;;;;;5012011;28;20239;-68
2021/11/27 01:06:00;;;;;;;1999.90;999.90;;;5.50;99.90;;;;;;5011799;28;20458;-68
2021/11/27 01:08:27;;;;;;;1999.90;999.90;;;5.60;99.90;;;;;;5012006;28;20419;-68
2021/11/27 01:11:03;;;;;;;1999.90;999.90;;;5.60;99.90;;;;;;5011941;28;20447;-68
2021/11/27 01:13:29;;;;;;;1999.90;999.90;;;5.50;99.90;;;;;;5011954;28;20416;-68
2021/11/27 01:15:55;;;;;;;1999.90;999.90;;;5.50;99.90;;;;;;5011765;28;20415;-68
2021/11/27 01:18:21;;;;;;;1999.90;999.90;;;5.50;99.90;;;;;;5011893;28;20819;-68
2021/11/27 01:20:51;;;;;;;1999.90;999.90;;;5.40;99.90;;;;;;5011879;28;20408;-68
2021/11/27 01:23:17;;;;;;;1999.90;999.90;;;5.40;99.90;;;;;;5011688;28;21264;-68
2021/11/27 01:25:46;;;;;;;1999.90;999.90;;;5.40;99.90;;;;;;5012654;28;20824;-68
2021/11/27 01:28:15;;;;;;;1999.90;999.90;;;5.40;99.90;;;;;;5015558;28;20408;-68
2021/11/27 01:30:43;;;;;;;1999.90;999.90;;;5.40;99.90;;;;;;5015469;28;20494;-68
2021/11/27 01:33:08;;;;;;;1999.90;999.90;;;5.40;99.90;;;;;;5015382;28;20511;-68
2021/11/27 01:35:34;;;;;;;1999.90;999.90;;;5.40;99.90;;;;;;5015280;28;20972;-68
2021/11/27 01:38:00;;;;;;;1999.90;999.90;;;5.30;99.90;;;;;;5015351;28;20400;-68
2021/11/27 01:40:26;;;;;;;1999.90;999.90;;;5.30;99.90;;;;;;5015370;28;20786;-68
2021/11/27 01:42:53;;;;;;;1999.90;999.90;;;5.30;99.90;;;;;;5015229;28;20654;-68
2021/11/27 01:45:20;;;;;;;1999.90;999.90;;;5.30;99.90;;;;;;5015039;28;20406;-68
2021/11/27 01:48:14;;;;;;;1999.90;999.90;;;5.30;99.90;;;;;;5015324;28;20814;-68
2021/11/27 01:51:02;;;;;;;1999.90;999.90;;;5.30;99.90;;;;;;5012076;28;20452;-68
2021/11/27 01:53:30;;;;;;;1999.90;999.90;;;5.30;99.90;;;;;;5015050;28;20507;-68
2021/11/27 01:56:00;;;;;;;1999.90;999.90;;;5.30;99.90;;;;;;5014852;28;20765;-68
2021/11/27 01:58:27;;;;;;;1999.90;999.90;;;5.30;99.90;;;;;;5015104;28;20897;-68
2021/11/27 02:00:58;;;;;;;1999.90;999.90;;;5.30;99.90;;;;;;5015043;28;20511;-68
2021/11/27 02:03:24;;;;;;;1999.90;999.90;;;5.40;99.90;;;;;;5014892;28;20447;-68
2021/11/27 02:05:49;;;;;;;1999.90;999.90;;;5.30;99.90;;;;;;5014664;28;20412;-68
2021/11/27 02:08:16;;;;;;;1999.90;999.90;;;5.30;99.90;;;;;;5014896;28;20169;-68
2021/11/27 02:10:42;;;;;;;1999.90;999.90;;;5.30;99.90;;;;;;5014780;28;20558;-68
2021/11/27 02:13:08;;;;;;;1999.90;999.90;;;5.30;99.90;;;;;;5014750;28;20506;-69
2021/11/27 02:15:34;;;;;;;1999.90;999.90;;;5.30;99.90;;;;;;5015537;28;20452;-68
2021/11/27 02:18:00;;;;;;;1999.90;999.90;;;5.30;99.90;;;;;;5015628;28;20411;-68
2021/11/27 02:20:25;;;;;;;1999.90;999.90;;;5.30;99.90;;;;;;5015765;28;20180;-67
2021/11/27 02:22:51;;;;;;;1999.90;999.90;;;5.30;99.90;;;;;;5015474;28;20213;-68
2021/11/27 02:25:20;;;;;;;1999.90;999.90;;;5.20;99.90;;;;;;5014930;28;20173;-67
2021/11/27 02:27:49;;;;;;;1999.90;999.90;;;5.20;99.90;;;;;;5015138;28;20323;-68
2021/11/27 02:30:18;;;;;;;1999.90;999.90;;;5.10;99.90;;;;;;5015048;28;20498;-67
2021/11/27 02:32:44;;;;;;;1999.90;999.90;;;4.90;99.90;;;;;;5015163;28;20482;-68
2021/11/27 02:35:11;;;;;;;1999.90;999.90;;;4.90;99.90;;;;;;5014934;28;20165;-68
2021/11/27 02:37:37;;;;;;;1999.90;999.90;;;4.80;99.90;;;;;;5014767;28;20419;-68
2021/11/27 02:40:06;;;;;;;1999.90;999.90;;;4.70;99.90;;;;;;5015188;28;20414;-68
2021/11/27 02:42:33;;;;;;;1999.90;999.90;;;4.60;99.90;;;;;;5015029;28;20435;-68
2021/11/27 02:44:58;;;;;;;1999.90;999.90;;;4.60;99.90;;;;;;5014590;28;20177;-68
2021/11/27 02:47:24;;;;;;;1999.90;999.90;;;4.50;99.90;;;;;;5014876;28;20977;-68
2021/11/27 02:49:50;;;;;;;1999.90;999.90;;;4.40;99.90;;;;;;5014945;28;20205;-67
2021/11/27 02:52:16;;;;;;;1999.90;999.90;;;4.40;99.90;;;;;;5014575;28;20193;-67
2021/11/27 02:54:42;;;;;;;1999.90;999.90;;;4.40;99.90;;;;;;5014710;28;20176;-67
2021/11/27 02:57:08;;;;;;;1999.90;999.90;;;4.40;99.90;;;;;;5014811;28;20165;-68
2021/11/27 02:59:35;;;;;;;1999.90;999.90;;;4.40;99.90;;;;;;5014785;28;20168;-68
2021/11/27 03:02:02;;;;;;;1999.90;999.90;;;4.40;99.90;;;;;;5014432;28;20192;-68
2021/11/27 03:04:31;;;;;;;1999.90;999.90;;;4.40;99.90;;;;;;4997008;28;20172;-67
2021/11/27 03:06:57;;;;;;;1999.90;999.90;;;4.40;99.90;;;;;;5014626;28;20626;-67
2021/11/27 03:09:22;;;;;;;1999.90;999.90;;;4.40;99.90;;;;;;5014472;28;20173;-67
2021/11/27 03:11:51;;;;;;;1999.90;999.90;;;4.40;99.90;;;;;;5014374;28;20693;-68
2021/11/27 03:14:20;;;;;;;1999.90;999.90;;;4.30;99.90;;;;;;5014097;28;20165;-69
2021/11/27 03:16:47;;;;;;;1999.90;999.90;;;4.20;99.90;;;;;;5014175;28;20803;-68
2021/11/27 03:19:13;;;;;;;1999.90;999.90;;;4.30;99.90;;;;;;5014454;28;20180;-68
2021/11/27 03:21:39;;;;;;;1999.90;999.90;;;4.30;99.90;;;;;;5013955;28;20177;-68
2021/11/27 03:24:05;;;;;;;1999.90;999.90;;;4.20;99.90;;;;;;5013826;28;20698;-68
2021/11/27 03:26:31;;;;;;;1999.90;999.90;;;4.20;99.90;;;;;;5014084;28;20169;-68
2021/11/27 03:28:57;;;;;;;1999.90;999.90;;;4.10;99.90;;;;;;5013947;28;20228;-68
2021/11/27 03:31:23;;;;;;;1999.90;999.90;;;4.10;99.90;;;;;;5014000;28;20188;-67
2021/11/27 03:33:49;;;;;;;1999.90;999.90;;;4.10;99.90;;;;;;5014017;28;20224;-66
2021/11/27 03:36:15;;;;;;;1999.90;999.90;;;4.10;99.90;;;;;;5014261;28;20200;-68
2021/11/27 03:38:41;;;;;;;1999.90;999.90;;;4.10;99.90;;;;;;5014196;28;20248;-67
2021/11/27 03:41:07;;;;;;;1999.90;999.90;;;4.00;99.90;;;;;;5014481;28;20323;-68
2021/11/27 03:43:33;;;;;;;1999.90;999.90;;;4.00;99.90;;;;;;5014199;28;20434;-67
2021/11/27 03:46:00;;;;;;;1999.90;999.90;;;4.00;99.90;;;;;;5013655;28;20208;-68
2021/11/27 03:48:36;;;;;;;1999.90;999.90;;;4.10;99.90;;;;;;5013021;28;20412;-67
2021/11/27 03:51:04;;;;;;;1999.90;999.90;;;4.10;99.90;;;;;;5013095;28;20212;-68
2021/11/27 03:53:33;;;;;;;1999.90;999.90;;;4.10;99.90;;;;;;5013238;28;20181;-68
2021/11/27 03:56:01;;;;;;;1999.90;999.90;;;4.20;99.90;;;;;;5013128;28;20733;-68
2021/11/27 03:58:27;;;;;;;1999.90;999.90;;;4.20;99.90;;;;;;5013428;28;20727;-69
2021/11/27 04:00:54;;;;;;;1999.90;999.90;;;4.10;99.90;;;;;;5013289;28;20229;-68
2021/11/27 04:03:20;;;;;;;1999.90;999.90;;;4.10;99.90;;;;;;5013041;28;20212;-68
2021/11/27 04:05:56;;;;;;;1999.90;999.90;;;4.10;99.90;;;;;;5012733;28;20209;-69
2021/11/27 04:08:22;;;;;;;1999.90;999.90;;;4.10;99.90;;;;;;5012886;28;20399;-67
2021/11/27 04:10:48;;;;;;;1999.90;999.90;;;4.10;99.90;;;;;;5012921;28;20280;-67
2021/11/27 04:13:15;;;;;;;1999.90;999.90;;;4.10;99.90;;;;;;5013081;28;20447;-68
2021/11/27 04:15:41;;;;;;;1999.90;999.90;;;4.10;99.90;;;;;;5013022;28;20179;-68
2021/11/27 04:18:07;;;;;;;1999.90;999.90;;;4.10;99.90;;;;;;5013637;28;20248;-68
2021/11/27 04:20:33;;;;;;;1999.90;999.90;;;4.20;99.90;;;;;;5013464;28;20471;-68
2021/11/27 04:23:00;;;;;;;1999.90;999.90;;;4.30;99.90;;;;;;5028284;22;20275;-70
2021/11/27 04:25:26;;;;;;;1999.90;999.90;;;4.20;99.90;;;;;;5012215;28;20192;-70
2021/11/27 04:27:52;;;;;;;1999.90;999.90;;;4.20;99.90;;;;;;5012767;28;20169;-71
2021/11/27 04:30:22;;;;;;;1999.90;999.90;;;4.20;99.90;;;;;;5012386;28;20783;-71
2021/11/27 04:32:48;;;;;;;1999.90;999.90;;;4.20;99.90;;;;;;5012281;28;20189;-71
2021/11/27 04:35:15;;;;;;;1999.90;999.90;;;4.20;99.90;;;;;;5012061;28;20396;-71
2021/11/27 04:37:41;;;;;;;1999.90;999.90;;;4.30;99.90;;;;;;5012349;28;20571;-71
2021/11/27 04:40:08;;;;;;;1999.90;999.90;;;4.30;99.90;;;;;;5012265;28;20603;-71
2021/11/27 04:42:34;;;;;;;1999.90;999.90;;;4.30;99.90;;;;;;5012146;28;20243;-71
2021/11/27 04:45:01;;;;;;;1999.90;999.90;;;4.30;99.90;;;;;;5012146;28;20839;-71
2021/11/27 04:47:26;;;;;;;1999.90;999.90;;;4.30;99.90;;;;;;5012275;28;20572;-71
2021/11/27 04:49:52;;;;;;;1999.90;999.90;;;4.20;99.90;;;;;;5012146;28;20161;-71
2021/11/27 04:52:18;;;;;;;1999.90;999.90;;;4.20;99.90;;;;;;5012074;28;20862;-71
2021/11/27 04:54:43;;;;;;;1999.90;999.90;;;4.10;99.90;;;;;;5011931;28;20171;-71
2021/11/27 04:57:09;;;;;;;1999.90;999.90;;;4.10;99.90;;;;;;5012134;28;20211;-71
2021/11/27 04:59:35;;;;;;;1999.90;999.90;;;4.00;99.90;;;;;;5012148;28;20535;-71
2021/11/27 05:02:01;;;;;;;1999.90;999.90;;;3.90;99.90;;;;;;5015165;28;20222;-71
2021/11/27 05:04:28;;;;;;;1999.90;999.90;;;3.80;99.90;;;;;;5015800;28;20173;-71
2021/11/27 05:06:55;;;;;;;1999.90;999.90;;;3.80;99.90;;;;;;5016022;28;20165;-71
2021/11/27 05:09:20;;;;;;;1999.90;999.90;;;3.70;99.90;;;;;;5015986;28;20635;-71
2021/11/27 05:11:46;;;;;;;1999.90;999.90;;;3.70;99.90;;;;;;5015921;28;20255;-71
2021/11/27 05:14:11;;;;;;;1999.90;999.90;;;3.60;99.90;;;;;;5015499;28;20189;-71
2021/11/27 05:16:37;;;;;;;1999.90;999.90;;;3.60;99.90;;;;;;5015819;28;20208;-71
2021/11/27 05:19:03;;;;;;;1999.90;999.90;;;3.60;99.90;;;;;;5015775;28;20169;-71
2021/11/27 05:21:29;;;;;;;1999.90;999.90;;;3.60;99.90;;;;;;5015695;28;20419;-71
2021/11/27 05:23:55;;;;;;;1999.90;999.90;;;3.60;99.90;;;;;;5015642;28;20270;-71
2021/11/27 05:26:20;;;;;;;1999.90;999.90;;;3.70;99.90;;;;;;5015416;28;20252;-71
2021/11/27 05:28:47;;;;;;;1999.90;999.90;;;3.80;99.90;;;;;;5015631;28;20187;-71
2021/11/27 05:31:15;;;;;;;1999.90;999.90;;;3.80;99.90;;;;;;5015590;28;20447;-70
2021/11/27 05:36:18;;;;;;;1999.90;999.90;;;3.90;99.90;;;;;;5015158;28;20173;-71
2021/11/27 05:38:46;;;;;;;1999.90;999.90;;;4.00;99.90;;;;;;5015442;28;20251;-71
2021/11/27 05:41:13;;;;;;;1999.90;999.90;;;4.00;99.90;;;;;;5015380;28;20169;-71
2021/11/27 05:43:39;;;;;;;1999.90;999.90;;;4.10;99.90;;;;;;5015270;28;20197;-71
2021/11/27 05:46:05;;;;;;;1999.90;999.90;;;4.10;99.90;;;;;;5015003;28;20670;-70
2021/11/27 05:48:30;;;;;;;1999.90;999.90;;;4.10;99.90;;;;;;5015175;28;20239;-70
2021/11/27 05:50:56;;;;;;;1999.90;999.90;;;4.20;99.90;;;;;;5015067;28;20443;-71
2021/11/27 05:53:22;;;;;;;1999.90;999.90;;;4.20;99.90;;;;;;5015259;28;20197;-71
2021/11/27 05:55:49;;;;;;;1999.90;999.90;;;4.20;99.90;;;;;;5014969;28;20968;-71
2021/11/27 05:58:17;;;;;;;1999.90;999.90;;;4.10;99.90;;;;;;5015100;28;20216;-71
2021/11/27 06:00:43;;;;;;;1999.90;999.90;;;4.10;99.90;;;;;;5014973;28;20526;-71
2021/11/27 06:03:09;;;;;;;1999.90;999.90;;;4.10;99.90;;;;;;5014936;28;20247;-70
2021/11/27 06:05:35;;;;;;;1999.90;999.90;;;4.00;99.90;;;;;;5014855;28;20554;-71
2021/11/27 06:08:01;;;;;;;1999.90;999.90;;;4.00;99.90;;;;;;5014936;28;20824;-71
2021/11/27 06:10:27;;;;;;;1999.90;999.90;;;4.00;99.90;;;;;;5014764;28;20225;-70
2021/11/27 06:12:54;;;;;;;1999.90;999.90;;;4.00;99.90;;;;;;5014375;28;20456;-70
2021/11/27 06:15:20;;;;;;;1999.90;999.90;;;4.00;99.90;;;;;;5014532;28;20173;-71
2021/11/27 06:17:46;;;;;;;1999.90;999.90;;;3.90;99.90;;;;;;5014675;28;20412;-70
2021/11/27 06:20:12;;;;;;;1999.90;999.90;;;3.90;99.90;;;;;;5014726;28;20403;-70
2021/11/27 06:22:38;;;;;;;1999.90;999.90;;;3.80;99.90;;;;;;5014574;28;20259;-71
2021/11/27 06:25:04;;;;;;;1999.90;999.90;;;3.70;99.90;;;;;;5014349;28;20185;-71
2021/11/27 06:27:30;;;;;;;1999.90;999.90;;;3.80;99.90;;;;;;5014515;28;20173;-70
2021/11/27 06:29:56;;;;;;;1999.90;999.90;;;3.70;99.90;;;;;;5014349;28;20673;-70
2021/11/27 06:32:25;;;;;;;1999.90;999.90;;;3.60;99.90;;;;;;5014393;28;20192;-71
2021/11/27 06:34:51;;;;;;;1999.90;999.90;;;3.50;99.90;;;;;;5014178;28;20264;-71
2021/11/27 06:37:21;;;;;;;1999.90;999.90;;;3.40;99.90;;;;;;5014355;28;20662;-71
2021/11/27 06:39:49;;;;;;;1999.90;999.90;;;3.40;99.90;;;;;;5014254;28;20169;-71
2021/11/27 06:42:15;;;;;;;1999.90;999.90;;;3.30;99.90;;;;;;5014202;28;20591;-70
2021/11/27 06:44:46;;;;;;;1999.90;999.90;;;3.30;99.90;;;;;;5013886;28;20174;-71
2021/11/27 06:47:16;;;;;;;1999.90;999.90;;;3.30;99.90;;;;;;5014052;28;20185;-71
2021/11/27 06:49:44;;;;;;;1999.90;999.90;;;3.30;99.90;;;;;;5014105;28;20569;-71
2021/11/27 06:52:11;;;;;;;1999.90;999.90;;;3.30;99.90;;;;;;5013975;28;20208;-71
2021/11/27 06:54:37;;;;;;;1999.90;999.90;;;3.30;99.90;;;;;;5013808;28;20168;-71
2021/11/27 06:57:03;;;;;;;1999.90;999.90;;;3.20;99.90;;;;;;5014009;28;20669;-71
2021/11/27 06:59:29;;;;;;;1999.90;999.90;;;3.10;99.90;;;;;;5013848;28;20204;-70
2021/11/27 07:01:54;;;;;;;1999.90;999.90;;;3.10;99.90;;;;;;5013825;28;20227;-70
2021/11/27 07:04:21;;;;;;;1999.90;999.90;;;3.10;99.90;;;;;;5013647;28;20288;-70
2021/11/27 07:06:48;;;;;;;1999.90;999.90;;;3.10;99.90;;;;;;5013704;28;20200;-71
2021/11/27 07:09:14;;;;;;;1999.90;999.90;;;3.10;99.90;;;;;;5013789;28;20551;-71
2021/11/27 07:11:39;;;;;;;1999.90;999.90;;;3.00;99.90;;;;;;5013612;28;20197;-71
2021/11/27 07:14:05;;;;;;;1999.90;999.90;;;3.10;99.90;;;;;;5013215;28;20427;-71
2021/11/27 07:16:31;;;;;;;1999.90;999.90;;;3.00;99.90;;;;;;5013801;28;20177;-71
2021/11/27 07:18:56;;;;;;;1999.90;999.90;;;3.10;99.90;;;;;;5013806;28;20176;-71
2021/11/27 07:21:22;;;;;;;1999.90;999.90;;;3.10;99.90;;;;;;5013462;28;20173;-71
2021/11/27 07:23:48;;;;;;;1999.90;999.90;;;3.10;99.90;;;;;;5012439;28;20211;-71
2021/11/27 07:26:13;;;;;;;1999.90;999.90;;;3.10;99.90;;;;;;5013226;28;20673;-71
2021/11/27 07:28:39;;;;;;;1999.90;999.90;;;3.00;99.90;;;;;;5013335;28;20169;-70
2021/11/27 07:31:05;;;;;;;1999.90;999.90;;;2.90;99.90;;;;;;5013241;28;20197;-70
2021/11/27 07:33:31;;;;;;;1999.90;999.90;;;2.90;99.90;;;;;;5013226;28;20263;-70
2021/11/27 07:35:56;;;;;;;1999.90;999.90;;;3.00;99.90;;;;;;5012952;28;20776;-70
2021/11/27 07:38:22;;;;;;;1999.90;999.90;;;3.10;99.90;;;;;;5012984;28;20172;-70
2021/11/27 07:40:48;;;;;;;1999.90;999.90;;;3.10;99.90;;;;;;5013175;28;20165;-70
2021/11/27 07:43:14;;;;;;;1999.90;999.90;;;3.20;99.90;;;;;;5012988;28;20687;-70
2021/11/27 07:45:39;;;;;;;1999.90;999.90;;;3.20;99.90;;;;;;5012757;28;20773;-70
2021/11/27 07:48:06;;;;;;;1999.90;999.90;;;3.20;99.90;;;;;;5013060;28;20407;-70
2021/11/27 07:50:32;;;;;;;1999.90;999.90;;;3.20;99.90;;;;;;5012889;28;20192;-70
2021/11/27 07:52:58;;;;;;;1999.90;999.90;;;3.30;99.90;;;;;;5012988;28;20734;-70
2021/11/27 07:55:25;;;;;;;1999.90;999.90;;;3.40;99.90;;;;;;5012813;28;20248;-70
2021/11/27 07:57:51;;;;;;;1999.90;999.90;;;3.30;99.90;;;;;;5012880;28;20251;-70
2021/11/27 08:00:17;;;;;;;1999.90;999.90;;;3.40;99.90;;;;;;5012974;28;20578;-70
2021/11/27 08:02:43;;;;;;;1999.90;999.90;;;3.50;99.90;;;;;;5013004;28;20289;-71
2021/11/27 08:05:09;;;;;;;1999.90;999.90;;;3.50;99.90;;;;;;5012533;28;20248;-71
2021/11/27 08:07:35;;;;;;;1999.90;999.90;;;3.60;99.90;;;;;;5013050;28;20197;-70
2021/11/27 08:10:04;;;;;;;1999.90;999.90;;;3.70;99.90;;;;;;5012790;28;20165;-71
2021/11/27 08:12:29;;;;;;;1999.90;999.90;;;3.70;99.90;;;;;;5012927;28;20231;-71
2021/11/27 08:14:55;;;;;;;1999.90;999.90;;;3.80;99.90;;;;;;5012424;28;20541;-70
2021/11/27 08:17:20;;;;;;;1999.90;999.90;;;3.80;99.90;;;;;;5012662;28;20172;-70
2021/11/27 08:19:46;;;;;;;1999.90;999.90;;;3.80;99.90;;;;;;5012704;28;20513;-70
2021/11/27 08:22:12;;;;;;;1999.90;999.90;;;4.00;99.90;;;;;;5012377;28;20184;-70
2021/11/27 08:24:37;;;;;;;1999.90;999.90;;;4.00;99.90;;;;;;5012227;28;20165;-71
2021/11/27 08:27:03;;;;;;;1999.90;999.90;;;4.00;99.90;;;;;;5012431;28;20188;-70
2021/11/27 08:29:29;;;;;;;1999.90;999.90;;;4.10;99.90;;;;;;5012427;28;20707;-71
2021/11/27 08:31:54;;;;;;;1999.90;999.90;;;4.20;99.90;;;;;;5012374;28;20692;-71
2021/11/27 08:34:20;;;;;;;1999.90;999.90;;;4.20;99.90;;;;;;5011850;28;20595;-71
2021/11/27 08:36:46;;;;;;;1999.90;999.90;;;4.20;99.90;;;;;;5012311;28;20173;-71
2021/11/27 08:39:11;;;;;;;1999.90;999.90;;;4.20;99.90;;;;;;5012416;28;20254;-71
2021/11/27 08:41:37;;;;;;;1999.90;999.90;;;4.20;99.90;;;;;;5012299;28;20200;-71
2021/11/27 08:44:03;;;;;;;1999.90;999.90;;;4.10;99.90;;;;;;5011812;28;20228;-71
2021/11/27 08:46:29;;;;;;;1999.90;999.90;;;4.10;99.90;;;;;;5012191;28;20177;-70
2021/11/27 08:48:55;;;;;;;1999.90;999.90;;;4.10;99.90;;;;;;5012040;28;20185;-71
2021/11/27 08:51:20;;;;;;;1999.90;999.90;;;4.10;99.90;;;;;;5012220;28;20214;-71
2021/11/27 08:53:46;;;;;;;1999.90;999.90;;;4.20;99.90;;;;;;5012113;28;20218;-70
2021/11/27 08:56:12;;;;;;;1999.90;999.90;;;4.30;99.90;;;;;;4994221;28;20205;-71
2021/11/27 08:58:39;;;;;;;1999.90;999.90;;;4.30;99.90;;;;;;5012071;28;20200;-71
2021/11/27 09:01:05;;;;;;;1999.90;999.90;;;4.50;99.90;;;;;;5012240;28;20188;-71
2021/11/27 09:03:31;;;;;;;1999.90;999.90;;;4.70;99.90;;;;;;5012001;28;20200;-71
2021/11/27 09:05:57;;;;;;;1999.90;999.90;;;4.90;99.90;;;;;;5011724;28;20592;-70
2021/11/27 09:08:22;;;;;;;1999.90;999.90;;;5.00;99.90;;;;;;5011994;28;20260;-71
2021/11/27 09:10:49;;;;;;;1999.90;999.90;;;5.20;99.90;;;;;;5011864;28;20189;-71
2021/11/27 09:13:15;;;;;;;1999.90;999.90;;;5.20;99.90;;;;;;5012066;28;20227;-70
2021/11/27 09:15:41;;;;;;;1999.90;999.90;;;5.20;99.90;;;;;;5011678;28;20408;-71
2021/11/27 09:18:09;;;;;;;1999.90;999.90;;;5.20;99.90;;;;;;5011945;28;20411;-71
2021/11/27 09:20:35;;;;;;;1999.90;999.90;;;5.20;99.90;;;;;;5011874;28;20172;-71
2021/11/27 09:23:02;;;;;;;1999.90;999.90;;;5.20;99.90;;;;;;5011684;28;20864;-71
2021/11/27 09:25:29;;;;;;;1999.90;999.90;;;5.20;99.90;;;;;;5011496;28;20415;-71
2021/11/27 09:27:56;;;;;;;1999.90;999.90;;;5.20;99.90;;;;;;5011702;28;20905;-70
2021/11/27 09:30:22;;;;;;;1999.90;999.90;;;5.30;99.90;;;;;;5011748;28;20807;-71
2021/11/27 09:32:47;;;;;;;1999.90;999.90;;;5.40;99.90;;;;;;5011689;28;20419;-70
2021/11/27 09:35:13;;;;;;;1999.90;999.90;;;5.40;99.90;;;;;;5011508;28;20411;-71
2021/11/27 09:37:40;;;;;;;1999.90;999.90;;;5.50;99.90;;;;;;5011756;28;20706;-71
2021/11/27 09:40:07;;;;;;;1999.90;999.90;;;5.50;99.90;;;;;;5011659;28;20412;-71
2021/11/27 09:42:34;;;;;;;1999.90;999.90;;;5.50;99.90;;;;;;5005607;28;20475;-72
2021/11/27 09:45:01;;;;;;;1999.90;999.90;;;5.70;99.90;;;;;;5009448;28;20530;-72
2021/11/27 09:47:28;;;;;;;1999.90;999.90;;;5.80;99.90;;;;;;5011968;28;20420;-71
2021/11/27 09:49:56;;;;;;;1999.90;999.90;;;5.80;99.90;;;;;;5013354;28;20404;-72
2021/11/27 09:52:22;;;;;;;1999.90;999.90;;;5.90;99.90;;;;;;5013382;28;20456;-71
2021/11/27 09:54:50;;;;;;;1999.90;999.90;;;5.90;99.90;;;;;;5013601;28;20392;-71
2021/11/27 09:57:16;;;;;;;1999.90;999.90;;;5.90;99.90;;;;;;5013203;28;20486;-72
2021/11/27 09:59:43;;;;;;;1999.90;999.90;;;5.80;99.90;;;;;;5013820;28;20921;-71
2021/11/27 10:02:11;;;;;;;1999.90;999.90;;;5.80;99.90;;;;;;5013560;28;20165;-71
2021/11/27 10:04:40;;;;;;;1999.90;999.90;;;5.90;99.90;;;;;;5012962;28;20759;-71
2021/11/27 10:07:11;;;;;;;1999.90;999.90;;;5.90;99.90;;;;;;5013621;28;20569;-71
2021/11/27 10:09:37;;;;;;;1999.90;999.90;;;5.90;99.90;;;;;;5013775;28;20169;-71
2021/11/27 10:12:07;;;;;;;1999.90;999.90;;;5.90;99.90;;;;;;5012895;28;20498;-71
2021/11/27 10:14:39;;;;;;;1999.90;999.90;;;6.00;99.90;;;;;;5013271;28;20412;-71
2021/11/27 10:17:10;;;;;;;1999.90;999.90;;;6.10;99.90;;;;;;5013408;28;20840;-71
2021/11/27 10:19:41;;;;;;;1999.90;999.90;;;6.00;99.90;;;;;;5012949;28;20921;-71
2021/11/27 10:22:09;;;;;;;1999.90;999.90;;;6.10;99.90;;;;;;5013069;28;20408;-71
2021/11/27 10:24:35;;;;;;;1999.90;999.90;;;6.00;99.90;;;;;;5013096;28;20209;-71
2021/11/27 10:27:02;;;;;;;1999.90;999.90;;;6.00;99.90;;;;;;4998498;28;20519;-70
2021/11/27 10:29:33;;;;;;;1999.90;999.90;;;6.00;99.90;;;;;;5019987;28;20482;-68
2021/11/27 10:32:10;;;;;;;1999.90;999.90;;;6.10;99.90;;;;;;5007217;28;20568;-69
2021/11/27 10:34:37;;;;;;;1999.90;999.90;;;6.10;99.90;;;;;;5004108;28;20500;-69
2021/11/27 10:37:22;;;;;;;1999.90;999.90;;;6.10;99.90;;;;;;5021448;28;20403;-71
2021/11/27 10:40:00;;;;;;;1999.90;999.90;;;6.20;99.90;;;;;;5022854;28;20406;-69
2021/11/27 10:42:26;;;;;;;1999.90;999.90;;;6.20;99.90;;;;;;5005249;28;20509;-69
2021/11/27 10:44:53;;;;;;;1999.90;999.90;;;6.30;99.90;;;;;;5002282;28;20405;-69
2021/11/27 10:47:20;;;;;;;1999.90;999.90;;;6.40;99.90;;;;;;5018161;28;20901;-69
2021/11/27 10:49:50;;;;;;;1999.90;999.90;;;6.50;99.90;;;;;;5004465;28;20416;-69
2021/11/27 10:52:18;;;;;;;1999.90;999.90;;;6.60;99.90;;;;;;5012693;28;20524;-68
2021/11/27 10:54:55;;;;;;;1999.90;999.90;;;6.70;99.90;;;;;;5015369;28;20418;-69
2021/11/27 10:57:36;;;;;;;1999.90;999.90;;;6.70;99.90;;;;;;5004283;28;20408;-69
2021/11/27 11:00:09;;;;;;;1999.90;999.90;;;6.80;99.90;;;;;;5012810;28;20384;-69
2021/11/27 11:02:37;;;;;;;1999.90;999.90;;;6.80;99.90;;;;;;5011641;28;20876;-69
2021/11/27 11:05:06;;;;;;;1999.90;999.90;;;7.00;99.90;;;;;;5013186;28;20400;-68
2021/11/27 11:07:32;;;;;;;1999.90;999.90;;;7.20;99.90;;;;;;5013121;28;20410;-70
2021/11/27 11:10:14;;;;;;;1999.90;999.90;;;7.60;99.90;;;;;;5013458;28;20406;-70
2021/11/27 11:13:06;;;;;;;1999.90;999.90;;;8.10;99.90;;;;;;5015146;28;20436;-70
2021/11/27 11:15:34;;;;;;;1999.90;999.90;;;8.70;99.90;;;;;;5009952;28;20959;-69
2021/11/27 11:18:26;;;;;;;1999.90;999.90;;;9.20;99.90;;;;;;5017915;28;20400;-71
2021/11/27 11:20:53;;;;;;;1999.90;999.90;;;9.70;99.90;;;;;;5020911;28;20440;-69
2021/11/27 11:23:35;;;;;;;1999.90;999.90;;;10.30;99.90;;;;;;5001833;28;20456;-70
2021/11/27 11:26:03;;;;;;;1999.90;999.90;;;10.70;99.90;;;;;;5018432;28;20521;-70
2021/11/27 11:28:35;;;;;;;1999.90;999.90;;;11.20;99.90;;;;;;5020359;28;20489;-70
2021/11/27 11:31:05;;;;;;;1999.90;999.90;;;11.50;99.90;;;;;;5003898;28;20455;-70
2021/11/27 11:33:33;;;;;;;1999.90;999.90;;;11.60;99.90;;;;;;5021328;28;20420;-68
2021/11/27 11:36:01;;;;;;;1999.90;999.90;;;11.70;99.90;;;;;;5001405;28;20411;-70
2021/11/27 11:38:27;;;;;;;1999.90;999.90;;;11.80;99.90;;;;;;5012889;28;20419;-71
2021/11/27 11:40:53;;;;;;;1999.90;999.90;;;12.10;99.90;;;;;;5020959;28;20404;-69
2021/11/27 11:43:19;;;;;;;1999.90;999.90;;;12.30;99.90;;;;;;5020250;28;20203;-69
2021/11/27 11:45:45;;;;;;;1999.90;999.90;;;12.50;99.90;;;;;;5018073;28;20188;-69
2021/11/27 11:48:11;;;;;;;1999.90;999.90;;;12.70;99.90;;;;;;5012542;28;20412;-69
2021/11/27 11:50:42;;;;;;;1999.90;999.90;;;13.00;99.90;;;;;;5004659;28;20212;-69
2021/11/27 11:53:36;;;;;;;1999.90;999.90;;;13.40;99.90;;;;;;5022312;28;20428;-70
2021/11/27 11:56:05;;;;;;;1999.90;999.90;;;13.90;99.90;;;;;;5021735;28;20417;-70
2021/11/27 11:58:37;;;;;;;1999.90;999.90;;;14.30;99.90;;;;;;5025139;28;20498;-71
2021/11/27 12:01:13;;;;;;;1999.90;999.90;;;14.80;99.00;;;;;;5008038;28;20445;-70
2021/11/27 12:03:40;;;;;;;1999.90;999.90;;;15.10;95.00;;;;;;5023186;28;20431;-71
2021/11/27 12:06:11;;;;;;;1999.90;999.90;;;15.20;90.70;;;;;;5024879;28;20987;-70
2021/11/27 12:08:49;;;;;;;1999.90;999.90;;;15.20;86.50;;;;;;5007354;28;20424;-71
2021/11/27 12:11:54;;;;;;;1999.90;999.90;;;14.60;88.80;;;;;;5024269;28;20459;-71